sensor_id;sensor_type;location;lat;lon;timestamp;temperature;humidity
56542;DHT22;42438;53.174;6.730;2022-12-18T00:00:29;-3.80;99.90
56542;DHT22;42438;53.174;6.730;2022-12-18T00:03:00;-3.80;99.90
56542;DHT22;42438;53.174;6.730;2022-12-18T00:05:31;-3.80;99.90
56542;DHT22;42438;53.174;6.730;2022-12-18T00:08:02;-3.80;99.90
56542;DHT22;42438;53.174;6.730;2022-12-18T00:10:32;-3.60;99.90
56542;DHT22;42438;53.174;6.730;2022-12-18T00:13:03;-3.80;99.90
56542;DHT22;42438;53.174;6.730;2022-12-18T00:15:35;-3.70;99.90
56542;DHT22;42438;53.174;6.730;2022-12-18T00:18:06;-3.60;99.90
56542;DHT22;42438;53.174;6.730;2022-12-18T00:20:38;-3.60;99.90
56542;DHT22;42438;53.174;6.730;2022-12-18T00:23:09;-3.70;99.90
56542;DHT22;42438;53.174;6.730;2022-12-18T00:25:39;-3.70;99.90
56542;DHT22;42438;53.174;6.730;2022-12-18T00:28:10;-3.70;99.90
56542;DHT22;42438;53.174;6.730;2022-12-18T00:30:40;-3.60;99.90
56542;DHT22;42438;53.174;6.730;2022-12-18T00:33:11;-3.70;99.90
56542;DHT22;42438;53.174;6.730;2022-12-18T00:35:42;-3.60;99.90
56542;DHT22;42438;53.174;6.730;2022-12-18T00:38:12;-3.70;99.90
56542;DHT22;42438;53.174;6.730;2022-12-18T00:40:44;-3.70;99.90
56542;DHT22;42438;53.174;6.730;2022-12-18T00:43:14;-3.60;99.90
56542;DHT22;42438;53.174;6.730;2022-12-18T00:45:45;-3.80;99.90
56542;DHT22;42438;53.174;6.730;2022-12-18T00:48:16;-3.80;99.90
56542;DHT22;42438;53.174;6.730;2022-12-18T00:50:49;-3.70;99.90
56542;DHT22;42438;53.174;6.730;2022-12-18T00:53:20;-3.80;99.90
56542;DHT22;42438;53.174;6.730;2022-12-18T00:55:51;-3.70;99.90
56542;DHT22;42438;53.174;6.730;2022-12-18T00:58:22;-3.70;99.90
56542;DHT22;42438;53.174;6.730;2022-12-18T01:00:52;-3.80;99.90
56542;DHT22;42438;53.174;6.730;2022-12-18T01:03:23;-3.80;99.90
56542;DHT22;42438;53.174;6.730;2022-12-18T01:05:54;-3.90;99.90
56542;DHT22;42438;53.174;6.730;2022-12-18T01:08:24;-3.70;99.90
56542;DHT22;42438;53.174;6.730;2022-12-18T01:10:55;-3.80;99.90
56542;DHT22;42438;53.174;6.730;2022-12-18T01:13:26;-3.80;99.90
56542;DHT22;42438;53.174;6.730;2022-12-18T01:15:57;-3.90;99.90
56542;DHT22;42438;53.174;6.730;2022-12-18T01:18:27;-3.90;99.90
56542;DHT22;42438;53.174;6.730;2022-12-18T01:20:58;-4.10;99.90
56542;DHT22;42438;53.174;6.730;2022-12-18T01:23:29;-4.20;99.90
56542;DHT22;42438;53.174;6.730;2022-12-18T01:26:14;-4.30;99.90
56542;DHT22;42438;53.174;6.730;2022-12-18T01:28:44;-4.30;99.90
56542;DHT22;42438;53.174;6.730;2022-12-18T01:31:24;-4.20;99.90
56542;DHT22;42438;53.174;6.730;2022-12-18T01:33:56;-4.20;99.90
56542;DHT22;42438;53.174;6.730;2022-12-18T01:36:30;-4.30;99.90
56542;DHT22;42438;53.174;6.730;2022-12-18T01:39:06;-4.20;99.90
56542;DHT22;42438;53.174;6.730;2022-12-18T01:41:37;-4.40;99.90
56542;DHT22;42438;53.174;6.730;2022-12-18T01:47:44;-4.30;99.90
56542;DHT22;42438;53.174;6.730;2022-12-18T01:50:19;-4.40;99.90
56542;DHT22;42438;53.174;6.730;2022-12-18T01:52:55;-4.60;99.90
56542;DHT22;42438;53.174;6.730;2022-12-18T01:55:31;-4.40;99.90
56542;DHT22;42438;53.174;6.730;2022-12-18T01:58:03;-4.60;99.90
56542;DHT22;42438;53.174;6.730;2022-12-18T02:00:34;-4.60;99.90
56542;DHT22;42438;53.174;6.730;2022-12-18T02:03:05;-4.60;99.90
56542;DHT22;42438;53.174;6.730;2022-12-18T02:18:57;-4.60;99.90
56542;DHT22;42438;53.174;6.730;2022-12-18T02:21:45;-4.80;99.90
56542;DHT22;42438;53.174;6.730;2022-12-18T02:24:41;-4.80;99.90
56542;DHT22;42438;53.174;6.730;2022-12-18T02:27:17;-4.80;99.90
56542;DHT22;42438;53.174;6.730;2022-12-18T02:29:51;-4.80;99.90
56542;DHT22;42438;53.174;6.730;2022-12-18T02:32:26;-4.80;99.90
56542;DHT22;42438;53.174;6.730;2022-12-18T02:34:58;-4.70;99.90
56542;DHT22;42438;53.174;6.730;2022-12-18T02:37:30;-4.80;99.90
56542;DHT22;42438;53.174;6.730;2022-12-18T02:40:03;-4.80;99.90
56542;DHT22;42438;53.174;6.730;2022-12-18T02:42:34;-4.90;99.90
56542;DHT22;42438;53.174;6.730;2022-12-18T02:45:05;-4.80;99.90
56542;DHT22;42438;53.174;6.730;2022-12-18T02:47:39;-4.80;99.90
56542;DHT22;42438;53.174;6.730;2022-12-18T02:51:13;-4.80;99.90
56542;DHT22;42438;53.174;6.730;2022-12-18T02:53:24;-4.80;99.90
56542;DHT22;42438;53.174;6.730;2022-12-18T02:56:07;-4.90;99.90
56542;DHT22;42438;53.174;6.730;2022-12-18T02:58:43;-5.00;99.90
56542;DHT22;42438;53.174;6.730;2022-12-18T03:01:25;-5.00;99.90
56542;DHT22;42438;53.174;6.730;2022-12-18T03:04:03;-5.00;99.90
56542;DHT22;42438;53.174;6.730;2022-12-18T03:06:40;-5.20;99.90
56542;DHT22;42438;53.174;6.730;2022-12-18T03:09:16;-5.20;99.90
56542;DHT22;42438;53.174;6.730;2022-12-18T03:11:54;-5.10;99.90
56542;DHT22;42438;53.174;6.730;2022-12-18T03:14:45;-5.20;99.90
56542;DHT22;42438;53.174;6.730;2022-12-18T03:17:20;-5.20;99.90
56542;DHT22;42438;53.174;6.730;2022-12-18T03:19:56;-5.20;99.90
56542;DHT22;42438;53.174;6.730;2022-12-18T03:22:31;-5.10;99.90
56542;DHT22;42438;53.174;6.730;2022-12-18T03:25:05;-5.30;99.90
56542;DHT22;42438;53.174;6.730;2022-12-18T03:27:42;-5.10;99.90
56542;DHT22;42438;53.174;6.730;2022-12-18T03:30:16;-5.30;99.90
56542;DHT22;42438;53.174;6.730;2022-12-18T03:32:51;-5.30;99.90
56542;DHT22;42438;53.174;6.730;2022-12-18T03:35:27;-5.40;99.90
56542;DHT22;42438;53.174;6.730;2022-12-18T03:37:59;-5.40;99.90
56542;DHT22;42438;53.174;6.730;2022-12-18T03:43:51;-5.20;99.90
56542;DHT22;42438;53.174;6.730;2022-12-18T03:46:38;-5.30;99.90
56542;DHT22;42438;53.174;6.730;2022-12-18T03:49:26;-5.20;99.90
56542;DHT22;42438;53.174;6.730;2022-12-18T03:52:18;-5.20;99.90
56542;DHT22;42438;53.174;6.730;2022-12-18T03:54:51;-5.30;99.90
56542;DHT22;42438;53.174;6.730;2022-12-18T03:57:26;-5.20;99.90
56542;DHT22;42438;53.174;6.730;2022-12-18T04:00:13;-5.30;99.90
56542;DHT22;42438;53.174;6.730;2022-12-18T04:02:51;-5.20;99.90
56542;DHT22;42438;53.174;6.730;2022-12-18T04:05:24;-5.30;99.90
56542;DHT22;42438;53.174;6.730;2022-12-18T04:07:56;-5.30;99.90
56542;DHT22;42438;53.174;6.730;2022-12-18T04:10:27;-5.30;99.90
56542;DHT22;42438;53.174;6.730;2022-12-18T04:12:58;-5.30;99.90
56542;DHT22;42438;53.174;6.730;2022-12-18T04:15:29;-5.10;99.90
56542;DHT22;42438;53.174;6.730;2022-12-18T04:18:02;-5.40;99.90
56542;DHT22;42438;53.174;6.730;2022-12-18T04:20:32;-5.40;99.90
56542;DHT22;42438;53.174;6.730;2022-12-18T04:23:03;-5.60;99.90
56542;DHT22;42438;53.174;6.730;2022-12-18T04:25:34;-5.30;99.90
56542;DHT22;42438;53.174;6.730;2022-12-18T04:28:04;-5.30;99.90
56542;DHT22;42438;53.174;6.730;2022-12-18T04:30:35;-5.50;99.90
56542;DHT22;42438;53.174;6.730;2022-12-18T04:33:10;-5.40;99.90
56542;DHT22;42438;53.174;6.730;2022-12-18T04:35:41;-5.50;99.90
56542;DHT22;42438;53.174;6.730;2022-12-18T04:38:12;-5.50;99.90
56542;DHT22;42438;53.174;6.730;2022-12-18T04:40:43;-5.60;99.90
56542;DHT22;42438;53.174;6.730;2022-12-18T04:43:14;-5.50;99.90
56542;DHT22;42438;53.174;6.730;2022-12-18T04:45:44;-5.60;99.90
56542;DHT22;42438;53.174;6.730;2022-12-18T04:48:15;-5.90;99.90
56542;DHT22;42438;53.174;6.730;2022-12-18T04:50:46;-5.80;99.90
56542;DHT22;42438;53.174;6.730;2022-12-18T04:53:17;-5.80;99.90
56542;DHT22;42438;53.174;6.730;2022-12-18T04:55:48;-5.80;99.90
56542;DHT22;42438;53.174;6.730;2022-12-18T04:58:18;-5.90;99.90
56542;DHT22;42438;53.174;6.730;2022-12-18T05:00:49;-5.80;99.90
56542;DHT22;42438;53.174;6.730;2022-12-18T05:03:20;-6.00;99.90
56542;DHT22;42438;53.174;6.730;2022-12-18T05:05:51;-5.80;99.90
56542;DHT22;42438;53.174;6.730;2022-12-18T05:08:22;-5.80;99.90
56542;DHT22;42438;53.174;6.730;2022-12-18T05:11:03;-5.90;99.90
56542;DHT22;42438;53.174;6.730;2022-12-18T05:13:35;-5.80;99.90
56542;DHT22;42438;53.174;6.730;2022-12-18T05:16:06;-5.80;99.90
56542;DHT22;42438;53.174;6.730;2022-12-18T05:18:37;-5.80;99.90
56542;DHT22;42438;53.174;6.730;2022-12-18T05:21:08;-6.00;99.90
56542;DHT22;42438;53.174;6.730;2022-12-18T05:23:39;-5.80;99.90
56542;DHT22;42438;53.174;6.730;2022-12-18T05:26:15;-5.90;99.90
56542;DHT22;42438;53.174;6.730;2022-12-18T05:28:47;-5.90;99.90
56542;DHT22;42438;53.174;6.730;2022-12-18T05:31:18;-6.00;99.90
56542;DHT22;42438;53.174;6.730;2022-12-18T05:33:48;-5.90;99.90
56542;DHT22;42438;53.174;6.730;2022-12-18T05:36:19;-5.90;99.90
56542;DHT22;42438;53.174;6.730;2022-12-18T05:38:50;-6.00;99.90
56542;DHT22;42438;53.174;6.730;2022-12-18T05:41:21;-6.00;99.90
56542;DHT22;42438;53.174;6.730;2022-12-18T05:43:51;-6.10;99.90
56542;DHT22;42438;53.174;6.730;2022-12-18T05:46:22;-6.00;99.90
56542;DHT22;42438;53.174;6.730;2022-12-18T05:48:52;-6.00;99.90
56542;DHT22;42438;53.174;6.730;2022-12-18T05:51:23;-5.90;99.90
56542;DHT22;42438;53.174;6.730;2022-12-18T05:53:54;-6.00;99.90
56542;DHT22;42438;53.174;6.730;2022-12-18T05:56:25;-6.00;99.90
56542;DHT22;42438;53.174;6.730;2022-12-18T05:58:55;-6.00;99.90
56542;DHT22;42438;53.174;6.730;2022-12-18T06:01:26;-6.00;99.90
56542;DHT22;42438;53.174;6.730;2022-12-18T06:03:57;-5.90;99.90
56542;DHT22;42438;53.174;6.730;2022-12-18T06:06:28;-6.00;99.90
56542;DHT22;42438;53.174;6.730;2022-12-18T06:08:59;-5.90;99.90
56542;DHT22;42438;53.174;6.730;2022-12-18T06:11:31;-6.10;99.90
56542;DHT22;42438;53.174;6.730;2022-12-18T06:14:03;-6.00;99.90
56542;DHT22;42438;53.174;6.730;2022-12-18T06:16:33;-6.10;99.90
56542;DHT22;42438;53.174;6.730;2022-12-18T06:19:05;-6.10;99.90
56542;DHT22;42438;53.174;6.730;2022-12-18T06:21:36;-6.00;99.90
56542;DHT22;42438;53.174;6.730;2022-12-18T06:24:07;-6.10;99.90
56542;DHT22;42438;53.174;6.730;2022-12-18T06:26:40;-6.20;99.90
56542;DHT22;42438;53.174;6.730;2022-12-18T06:29:11;-6.20;99.90
56542;DHT22;42438;53.174;6.730;2022-12-18T06:31:42;-6.20;99.90
56542;DHT22;42438;53.174;6.730;2022-12-18T06:34:13;-6.20;99.90
56542;DHT22;42438;53.174;6.730;2022-12-18T06:36:43;-6.10;99.90
56542;DHT22;42438;53.174;6.730;2022-12-18T06:39:14;-6.30;99.90
56542;DHT22;42438;53.174;6.730;2022-12-18T06:41:44;-6.30;99.90
56542;DHT22;42438;53.174;6.730;2022-12-18T06:44:15;-6.20;99.90
56542;DHT22;42438;53.174;6.730;2022-12-18T06:46:46;-6.30;99.90
56542;DHT22;42438;53.174;6.730;2022-12-18T06:49:16;-6.20;99.90
56542;DHT22;42438;53.174;6.730;2022-12-18T06:51:47;-6.30;99.90
56542;DHT22;42438;53.174;6.730;2022-12-18T06:54:18;-6.30;99.90
56542;DHT22;42438;53.174;6.730;2022-12-18T06:56:48;-6.20;99.90
56542;DHT22;42438;53.174;6.730;2022-12-18T06:59:19;-6.30;99.90
56542;DHT22;42438;53.174;6.730;2022-12-18T07:01:50;-6.30;99.90
56542;DHT22;42438;53.174;6.730;2022-12-18T07:04:20;-6.30;99.90
56542;DHT22;42438;53.174;6.730;2022-12-18T07:06:51;-6.20;99.90
56542;DHT22;42438;53.174;6.730;2022-12-18T07:09:22;-6.20;99.90
56542;DHT22;42438;53.174;6.730;2022-12-18T07:11:52;-5.20;99.90
56542;DHT22;42438;53.174;6.730;2022-12-18T07:14:23;-6.30;99.90
56542;DHT22;42438;53.174;6.730;2022-12-18T07:16:54;-6.30;99.90
56542;DHT22;42438;53.174;6.730;2022-12-18T07:19:24;-6.40;99.90
56542;DHT22;42438;53.174;6.730;2022-12-18T07:21:55;-6.50;99.90
56542;DHT22;42438;53.174;6.730;2022-12-18T07:24:26;-6.50;99.90
56542;DHT22;42438;53.174;6.730;2022-12-18T07:26:56;-6.50;99.90
56542;DHT22;42438;53.174;6.730;2022-12-18T07:29:27;-6.60;99.90
56542;DHT22;42438;53.174;6.730;2022-12-18T07:31:58;-6.50;99.90
56542;DHT22;42438;53.174;6.730;2022-12-18T07:34:28;-6.60;99.90
56542;DHT22;42438;53.174;6.730;2022-12-18T07:36:59;-6.40;99.90
56542;DHT22;42438;53.174;6.730;2022-12-18T07:39:30;-6.40;99.90
56542;DHT22;42438;53.174;6.730;2022-12-18T07:42:01;-6.40;99.90
56542;DHT22;42438;53.174;6.730;2022-12-18T07:44:50;-6.40;99.90
56542;DHT22;42438;53.174;6.730;2022-12-18T07:47:20;-6.20;99.90
56542;DHT22;42438;53.174;6.730;2022-12-18T07:49:51;-6.40;99.90
56542;DHT22;42438;53.174;6.730;2022-12-18T07:52:22;-6.40;99.90
56542;DHT22;42438;53.174;6.730;2022-12-18T07:54:52;-6.40;99.90
56542;DHT22;42438;53.174;6.730;2022-12-18T07:57:23;-6.40;99.90
56542;DHT22;42438;53.174;6.730;2022-12-18T07:59:54;-6.40;99.90
56542;DHT22;42438;53.174;6.730;2022-12-18T08:02:24;-6.40;99.90
56542;DHT22;42438;53.174;6.730;2022-12-18T08:04:55;-6.40;99.90
56542;DHT22;42438;53.174;6.730;2022-12-18T08:07:26;-6.20;99.90
56542;DHT22;42438;53.174;6.730;2022-12-18T08:09:56;-6.20;99.90
56542;DHT22;42438;53.174;6.730;2022-12-18T08:12:27;-6.30;99.90
56542;DHT22;42438;53.174;6.730;2022-12-18T08:14:58;-6.20;99.90
56542;DHT22;42438;53.174;6.730;2022-12-18T08:17:28;-6.20;99.90
56542;DHT22;42438;53.174;6.730;2022-12-18T08:19:59;-6.20;99.90
56542;DHT22;42438;53.174;6.730;2022-12-18T08:22:30;-6.20;99.90
56542;DHT22;42438;53.174;6.730;2022-12-18T08:25:00;-6.20;99.90
56542;DHT22;42438;53.174;6.730;2022-12-18T08:27:31;-6.10;99.90
56542;DHT22;42438;53.174;6.730;2022-12-18T08:30:04;-6.10;99.90
56542;DHT22;42438;53.174;6.730;2022-12-18T08:32:34;-6.10;99.90
56542;DHT22;42438;53.174;6.730;2022-12-18T08:35:05;-6.00;99.90
56542;DHT22;42438;53.174;6.730;2022-12-18T08:37:36;-6.00;99.90
56542;DHT22;42438;53.174;6.730;2022-12-18T08:40:07;-5.90;99.90
56542;DHT22;42438;53.174;6.730;2022-12-18T08:42:38;-5.90;99.90
56542;DHT22;42438;53.174;6.730;2022-12-18T08:45:28;-5.80;99.90
56542;DHT22;42438;53.174;6.730;2022-12-18T08:47:58;-5.80;99.90
56542;DHT22;42438;53.174;6.730;2022-12-18T08:50:29;-5.80;99.90
56542;DHT22;42438;53.174;6.730;2022-12-18T08:53:00;-5.70;99.90
56542;DHT22;42438;53.174;6.730;2022-12-18T08:55:31;-5.70;99.90
56542;DHT22;42438;53.174;6.730;2022-12-18T08:58:02;-5.60;99.90
56542;DHT22;42438;53.174;6.730;2022-12-18T09:00:32;-5.50;99.90
56542;DHT22;42438;53.174;6.730;2022-12-18T09:03:03;-5.50;99.90
56542;DHT22;42438;53.174;6.730;2022-12-18T09:05:34;-5.50;99.90
56542;DHT22;42438;53.174;6.730;2022-12-18T09:08:04;-5.50;99.90
56542;DHT22;42438;53.174;6.730;2022-12-18T09:10:42;-5.40;99.90
56542;DHT22;42438;53.174;6.730;2022-12-18T09:13:14;-4.20;99.90
56542;DHT22;42438;53.174;6.730;2022-12-18T09:15:53;-5.40;99.90
56542;DHT22;42438;53.174;6.730;2022-12-18T09:18:24;-5.30;99.90
56542;DHT22;42438;53.174;6.730;2022-12-18T09:20:55;-5.20;99.90
56542;DHT22;42438;53.174;6.730;2022-12-18T09:23:26;-5.10;99.90
56542;DHT22;42438;53.174;6.730;2022-12-18T09:25:59;-5.10;99.90
56542;DHT22;42438;53.174;6.730;2022-12-18T09:28:30;-5.00;99.90
56542;DHT22;42438;53.174;6.730;2022-12-18T09:31:07;-4.90;99.90
56542;DHT22;42438;53.174;6.730;2022-12-18T09:33:38;-4.90;99.90
56542;DHT22;42438;53.174;6.730;2022-12-18T09:36:11;-4.80;99.90
56542;DHT22;42438;53.174;6.730;2022-12-18T09:38:42;-4.90;99.90
56542;DHT22;42438;53.174;6.730;2022-12-18T09:44:18;-4.60;99.90
56542;DHT22;42438;53.174;6.730;2022-12-18T09:49:27;-4.30;99.90
56542;DHT22;42438;53.174;6.730;2022-12-18T09:52:13;-4.30;99.90
56542;DHT22;42438;53.174;6.730;2022-12-18T09:55:16;-4.20;99.90
56542;DHT22;42438;53.174;6.730;2022-12-18T09:57:46;-4.10;99.90
56542;DHT22;42438;53.174;6.730;2022-12-18T10:00:20;-4.10;99.90
56542;DHT22;42438;53.174;6.730;2022-12-18T10:02:57;-4.00;99.90
56542;DHT22;42438;53.174;6.730;2022-12-18T10:21:52;-3.70;99.90
56542;DHT22;42438;53.174;6.730;2022-12-18T10:24:46;-3.60;99.90
56542;DHT22;42438;53.174;6.730;2022-12-18T10:27:25;-3.50;99.90
56542;DHT22;42438;53.174;6.730;2022-12-18T10:29:57;-3.40;99.90
56542;DHT22;42438;53.174;6.730;2022-12-18T10:32:29;-3.20;99.90
56542;DHT22;42438;53.174;6.730;2022-12-18T10:35:00;-3.10;99.90
56542;DHT22;42438;53.174;6.730;2022-12-18T10:37:31;-3.20;99.90
56542;DHT22;42438;53.174;6.730;2022-12-18T10:42:39;-2.90;99.90
56542;DHT22;42438;53.174;6.730;2022-12-18T10:45:16;-2.90;99.90
56542;DHT22;42438;53.174;6.730;2022-12-18T10:47:49;-2.90;99.90
56542;DHT22;42438;53.174;6.730;2022-12-18T10:50:28;-2.80;99.90
56542;DHT22;42438;53.174;6.730;2022-12-18T10:53:02;-2.90;99.90
56542;DHT22;42438;53.174;6.730;2022-12-18T10:55:38;-3.00;99.90
56542;DHT22;42438;53.174;6.730;2022-12-18T10:58:27;-2.90;99.90
56542;DHT22;42438;53.174;6.730;2022-12-18T11:01:09;-3.10;99.90
56542;DHT22;42438;53.174;6.730;2022-12-18T11:03:43;-2.40;99.90
56542;DHT22;42438;53.174;6.730;2022-12-18T11:06:24;-2.80;99.90
56542;DHT22;42438;53.174;6.730;2022-12-18T11:09:04;-2.80;99.90
56542;DHT22;42438;53.174;6.730;2022-12-18T11:11:35;-2.80;99.90
56542;DHT22;42438;53.174;6.730;2022-12-18T11:14:31;-2.70;99.90
56542;DHT22;42438;53.174;6.730;2022-12-18T11:17:02;-2.70;99.90
56542;DHT22;42438;53.174;6.730;2022-12-18T11:19:37;-2.70;99.90
56542;DHT22;42438;53.174;6.730;2022-12-18T11:22:30;-2.60;99.90
56542;DHT22;42438;53.174;6.730;2022-12-18T11:25:06;-2.50;99.90
56542;DHT22;42438;53.174;6.730;2022-12-18T11:27:53;-2.40;99.90
56542;DHT22;42438;53.174;6.730;2022-12-18T11:30:34;-2.40;99.90
56542;DHT22;42438;53.174;6.730;2022-12-18T11:33:13;-1.50;99.90
56542;DHT22;42438;53.174;6.730;2022-12-18T11:35:55;-2.40;99.90
56542;DHT22;42438;53.174;6.730;2022-12-18T11:38:35;-2.30;99.90
56542;DHT22;42438;53.174;6.730;2022-12-18T11:44:03;-2.20;99.90
56542;DHT22;42438;53.174;6.730;2022-12-18T11:46:45;-2.20;99.90
56542;DHT22;42438;53.174;6.730;2022-12-18T11:49:24;-2.10;99.90
56542;DHT22;42438;53.174;6.730;2022-12-18T11:52:16;-2.20;99.90
56542;DHT22;42438;53.174;6.730;2022-12-18T11:54:51;-2.10;99.90
56542;DHT22;42438;53.174;6.730;2022-12-18T12:00:20;-2.00;99.90
56542;DHT22;42438;53.174;6.730;2022-12-18T12:14:38;-1.80;99.90
56542;DHT22;42438;53.174;6.730;2022-12-18T12:17:18;-1.80;99.90
56542;DHT22;42438;53.174;6.730;2022-12-18T12:22:53;-1.70;99.90
56542;DHT22;42438;53.174;6.730;2022-12-18T12:26:35;-1.70;99.90
56542;DHT22;42438;53.174;6.730;2022-12-18T12:34:49;-1.60;99.90
56542;DHT22;42438;53.174;6.730;2022-12-18T12:37:24;-1.60;99.90
56542;DHT22;42438;53.174;6.730;2022-12-18T12:40:00;-1.50;99.90
56542;DHT22;42438;53.174;6.730;2022-12-18T12:42:43;-1.50;99.90
56542;DHT22;42438;53.174;6.730;2022-12-18T12:46:23;-1.50;99.90
56542;DHT22;42438;53.174;6.730;2022-12-18T12:48:47;-1.50;99.90
56542;DHT22;42438;53.174;6.730;2022-12-18T12:53:53;-1.40;99.90
56542;DHT22;42438;53.174;6.730;2022-12-18T12:56:40;-1.40;99.90
56542;DHT22;42438;53.174;6.730;2022-12-18T13:06:00;-1.30;99.90
56542;DHT22;42438;53.174;6.730;2022-12-18T13:08:56;-0.20;99.90
56542;DHT22;42438;53.174;6.730;2022-12-18T13:14:31;-1.20;99.90
56542;DHT22;42438;53.174;6.730;2022-12-18T13:20:09;-1.00;99.90
56542;DHT22;42438;53.174;6.730;2022-12-18T13:22:49;-0.90;99.90
56542;DHT22;42438;53.174;6.730;2022-12-18T13:25:37;-0.90;99.90
56542;DHT22;42438;53.174;6.730;2022-12-18T13:28:10;-0.80;99.90
56542;DHT22;42438;53.174;6.730;2022-12-18T13:30:56;-0.90;99.90
56542;DHT22;42438;53.174;6.730;2022-12-18T13:33:37;-0.90;99.90
56542;DHT22;42438;53.174;6.730;2022-12-18T13:36:27;-0.90;99.90
56542;DHT22;42438;53.174;6.730;2022-12-18T13:39:24;-0.90;99.90
56542;DHT22;42438;53.174;6.730;2022-12-18T13:44:40;-0.70;99.90
56542;DHT22;42438;53.174;6.730;2022-12-18T13:47:44;-0.90;99.90
56542;DHT22;42438;53.174;6.730;2022-12-18T13:50:26;-1.00;99.90
56542;DHT22;42438;53.174;6.730;2022-12-18T13:52:57;-1.00;99.90
56542;DHT22;42438;53.174;6.730;2022-12-18T13:55:28;-0.90;99.90
56542;DHT22;42438;53.174;6.730;2022-12-18T13:58:06;-0.90;99.90
56542;DHT22;42438;53.174;6.730;2022-12-18T14:00:41;-1.00;99.90
56542;DHT22;42438;53.174;6.730;2022-12-18T14:03:31;-0.90;99.90
56542;DHT22;42438;53.174;6.730;2022-12-18T14:06:06;-1.00;99.90
56542;DHT22;42438;53.174;6.730;2022-12-18T14:08:41;-1.00;99.90
56542;DHT22;42438;53.174;6.730;2022-12-18T14:11:20;-0.40;99.90
56542;DHT22;42438;53.174;6.730;2022-12-18T14:13:52;-1.10;99.90
56542;DHT22;42438;53.174;6.730;2022-12-18T14:16:23;-0.90;99.90
56542;DHT22;42438;53.174;6.730;2022-12-18T14:18:56;-1.10;99.90
56542;DHT22;42438;53.174;6.730;2022-12-18T14:21:29;-1.00;99.90
56542;DHT22;42438;53.174;6.730;2022-12-18T14:24:26;-1.00;99.90
56542;DHT22;42438;53.174;6.730;2022-12-18T14:27:22;-1.10;99.90
56542;DHT22;42438;53.174;6.730;2022-12-18T14:29:53;-1.10;99.90
56542;DHT22;42438;53.174;6.730;2022-12-18T14:32:24;-1.10;99.90
56542;DHT22;42438;53.174;6.730;2022-12-18T14:34:54;-1.20;99.90
56542;DHT22;42438;53.174;6.730;2022-12-18T14:37:26;-1.20;99.90
56542;DHT22;42438;53.174;6.730;2022-12-18T14:40:02;-0.60;99.90
56542;DHT22;42438;53.174;6.730;2022-12-18T14:42:36;-1.30;99.90
56542;DHT22;42438;53.174;6.730;2022-12-18T14:45:33;-1.20;99.90
56542;DHT22;42438;53.174;6.730;2022-12-18T14:50:42;-1.30;99.90
56542;DHT22;42438;53.174;6.730;2022-12-18T14:53:41;-1.40;99.90
56542;DHT22;42438;53.174;6.730;2022-12-18T14:58:53;-1.20;99.90
56542;DHT22;42438;53.174;6.730;2022-12-18T15:01:27;-0.30;99.90
56542;DHT22;42438;53.174;6.730;2022-12-18T15:04:00;-1.50;99.90
56542;DHT22;42438;53.174;6.730;2022-12-18T15:06:35;-0.50;99.90
56542;DHT22;42438;53.174;6.730;2022-12-18T15:09:22;-1.50;99.90
56542;DHT22;42438;53.174;6.730;2022-12-18T15:11:58;-0.50;99.90
56542;DHT22;42438;53.174;6.730;2022-12-18T15:17:02;-1.60;99.90
56542;DHT22;42438;53.174;6.730;2022-12-18T15:19:35;-1.70;99.90
56542;DHT22;42438;53.174;6.730;2022-12-18T15:22:26;-1.60;99.90
56542;DHT22;42438;53.174;6.730;2022-12-18T15:24:58;-1.70;99.90
56542;DHT22;42438;53.174;6.730;2022-12-18T15:27:32;-1.80;99.90
56542;DHT22;42438;53.174;6.730;2022-12-18T15:32:39;-1.20;99.90
56542;DHT22;42438;53.174;6.730;2022-12-18T15:35:21;-1.80;99.90
56542;DHT22;42438;53.174;6.730;2022-12-18T15:37:52;-1.60;99.90
56542;DHT22;42438;53.174;6.730;2022-12-18T15:40:23;-1.90;99.90
56542;DHT22;42438;53.174;6.730;2022-12-18T15:42:55;-1.90;99.90
56542;DHT22;42438;53.174;6.730;2022-12-18T15:45:44;-1.90;99.90
56542;DHT22;42438;53.174;6.730;2022-12-18T15:48:22;-1.90;99.90
56542;DHT22;42438;53.174;6.730;2022-12-18T15:50:55;-1.90;99.90
56542;DHT22;42438;53.174;6.730;2022-12-18T15:53:32;-0.50;99.90
56542;DHT22;42438;53.174;6.730;2022-12-18T15:56:05;-1.90;99.90
56542;DHT22;42438;53.174;6.730;2022-12-18T15:58:57;-1.90;99.90
56542;DHT22;42438;53.174;6.730;2022-12-18T16:01:30;-2.00;99.90
56542;DHT22;42438;53.174;6.730;2022-12-18T16:04:01;-1.90;99.90
56542;DHT22;42438;53.174;6.730;2022-12-18T16:06:32;-1.90;99.90
56542;DHT22;42438;53.174;6.730;2022-12-18T16:09:04;-1.70;99.90
56542;DHT22;42438;53.174;6.730;2022-12-18T16:11:36;-1.90;99.90
56542;DHT22;42438;53.174;6.730;2022-12-18T16:17:12;-1.90;99.90
56542;DHT22;42438;53.174;6.730;2022-12-18T16:19:44;-1.70;99.90
56542;DHT22;42438;53.174;6.730;2022-12-18T16:22:21;-1.90;99.90
56542;DHT22;42438;53.174;6.730;2022-12-18T16:24:53;-1.90;99.90
56542;DHT22;42438;53.174;6.730;2022-12-18T16:27:24;-1.80;99.90
56542;DHT22;42438;53.174;6.730;2022-12-18T16:29:55;-1.80;99.90
56542;DHT22;42438;53.174;6.730;2022-12-18T16:32:25;-1.90;99.90
56542;DHT22;42438;53.174;6.730;2022-12-18T16:34:59;-1.80;99.90
56542;DHT22;42438;53.174;6.730;2022-12-18T16:37:30;-1.80;99.90
56542;DHT22;42438;53.174;6.730;2022-12-18T16:40:01;-1.20;99.90
56542;DHT22;42438;53.174;6.730;2022-12-18T16:42:32;-1.60;99.90
56542;DHT22;42438;53.174;6.730;2022-12-18T16:45:04;-1.70;99.90
56542;DHT22;42438;53.174;6.730;2022-12-18T16:47:35;-1.80;99.90
56542;DHT22;42438;53.174;6.730;2022-12-18T16:50:06;-1.80;99.90
56542;DHT22;42438;53.174;6.730;2022-12-18T16:52:37;-1.90;99.90
56542;DHT22;42438;53.174;6.730;2022-12-18T16:55:09;-1.80;99.90
56542;DHT22;42438;53.174;6.730;2022-12-18T16:57:39;-1.80;99.90
56542;DHT22;42438;53.174;6.730;2022-12-18T17:00:10;-1.70;99.90
56542;DHT22;42438;53.174;6.730;2022-12-18T17:02:41;-1.80;99.90
56542;DHT22;42438;53.174;6.730;2022-12-18T17:05:12;-1.70;99.90
56542;DHT22;42438;53.174;6.730;2022-12-18T17:07:43;-1.70;99.90
56542;DHT22;42438;53.174;6.730;2022-12-18T17:10:13;-1.70;99.90
56542;DHT22;42438;53.174;6.730;2022-12-18T17:12:44;-1.70;99.90
56542;DHT22;42438;53.174;6.730;2022-12-18T17:15:14;-1.60;99.90
56542;DHT22;42438;53.174;6.730;2022-12-18T17:17:45;-1.60;99.90
56542;DHT22;42438;53.174;6.730;2022-12-18T17:20:16;-1.60;99.90
56542;DHT22;42438;53.174;6.730;2022-12-18T17:22:46;-1.60;99.90
56542;DHT22;42438;53.174;6.730;2022-12-18T17:25:17;-1.50;99.90
56542;DHT22;42438;53.174;6.730;2022-12-18T17:27:50;-1.40;99.90
56542;DHT22;42438;53.174;6.730;2022-12-18T17:30:21;-1.60;99.90
56542;DHT22;42438;53.174;6.730;2022-12-18T17:32:51;-1.40;99.90
56542;DHT22;42438;53.174;6.730;2022-12-18T17:35:22;-0.40;99.90
56542;DHT22;42438;53.174;6.730;2022-12-18T17:37:53;-1.40;99.90
56542;DHT22;42438;53.174;6.730;2022-12-18T17:40:23;-1.40;99.90
56542;DHT22;42438;53.174;6.730;2022-12-18T17:42:54;-1.50;99.90
56542;DHT22;42438;53.174;6.730;2022-12-18T17:45:25;-1.40;99.90
56542;DHT22;42438;53.174;6.730;2022-12-18T17:47:55;-0.70;99.90
56542;DHT22;42438;53.174;6.730;2022-12-18T17:50:26;-1.40;99.90
56542;DHT22;42438;53.174;6.730;2022-12-18T17:52:57;-1.50;99.90
56542;DHT22;42438;53.174;6.730;2022-12-18T17:55:28;-1.40;99.90
56542;DHT22;42438;53.174;6.730;2022-12-18T17:57:59;-0.70;99.90